createdAt,value
2022-08-26T00:00:01.727Z,36.36
2022-08-26T00:02:14.590Z,37.35
2022-08-26T00:04:18.965Z,36.70
2022-08-26T00:06:22.974Z,37.21
2022-08-26T00:08:26.750Z,37.44
2022-08-26T00:10:30.528Z,37.85
2022-08-26T00:12:36.157Z,37.61
2022-08-26T00:14:42.054Z,38.46
2022-08-26T00:16:47.953Z,39.17
2022-08-26T00:18:54.333Z,39.54
2022-08-26T00:20:58.297Z,39.58
2022-08-26T00:23:02.454Z,40.15
2022-08-26T00:25:07.151Z,40.59
2022-08-26T00:27:12.977Z,40.94
2022-08-26T00:29:17.085Z,41.45
2022-08-26T00:31:22.043Z,40.83
2022-08-26T00:33:25.570Z,40.92
2022-08-26T00:35:30.598Z,42.36
2022-08-26T00:37:39.598Z,43.22
2022-08-26T00:39:43.235Z,43.45
2022-08-26T00:41:52.250Z,43.33
2022-08-26T00:43:56.179Z,44.30
2022-08-26T00:46:20.634Z,44.43
2022-08-26T00:48:33.210Z,44.96
2022-08-26T00:50:43.037Z,45.34
2022-08-26T00:52:47.569Z,46.16
2022-08-26T00:55:04.989Z,46.10
2022-08-26T00:57:16.323Z,46.81
2022-08-26T00:59:21.347Z,47.69
2022-08-26T01:01:27.312Z,47.33
2022-08-26T01:03:37.570Z,48.24
2022-08-26T01:05:43.142Z,48.63
2022-08-26T01:07:47.415Z,49.60
2022-08-26T01:09:53.663Z,50.55
2022-08-26T01:11:59.246Z,50.53
2022-08-26T01:14:04.407Z,50.64
2022-08-26T01:16:13.376Z,51.61
2022-08-26T01:18:17.294Z,52.06
2022-08-26T01:20:27.187Z,52.40
2022-08-26T01:22:53.998Z,52.94
2022-08-26T01:24:59.873Z,53.94
2022-08-26T01:27:06.269Z,54.27
2022-08-26T01:29:15.295Z,54.70
2022-08-26T01:31:22.055Z,55.04
2022-08-26T01:33:30.616Z,55.51
2022-08-26T01:35:45.956Z,55.99
2022-08-26T01:37:51.266Z,56.72
2022-08-26T01:39:57.954Z,57.50
2022-08-26T01:42:05.811Z,58.11
2022-08-26T01:44:17.410Z,58.61
2022-08-26T01:46:23.667Z,60.01
2022-08-26T01:48:30.153Z,60.44
2022-08-26T01:50:35.055Z,60.87
2022-08-26T01:52:42.630Z,61.17
2022-08-26T01:54:50.481Z,62.54
2022-08-26T01:56:56.591Z,62.88
2022-08-26T01:59:02.122Z,63.33
2022-08-26T02:01:08.721Z,64.22
2022-08-26T02:03:19.818Z,63.02
2022-08-26T02:05:25.169Z,64.17
2022-08-26T02:07:29.535Z,63.86
2022-08-26T02:09:33.796Z,64.80
2022-08-26T02:11:46.250Z,64.65
2022-08-26T02:13:58.572Z,66.09
2022-08-26T02:16:04.830Z,67.06
2022-08-26T02:18:14.185Z,68.16
2022-08-26T02:20:21.984Z,67.29
2022-08-26T02:22:26.481Z,67.86
2022-08-26T02:24:31.863Z,68.17
2022-08-26T02:26:35.628Z,69.27
2022-08-26T02:28:41.990Z,69.36
2022-08-26T02:30:46.582Z,69.80
2022-08-26T02:32:50.861Z,70.32
2022-08-26T02:34:57.456Z,71.02
2022-08-26T02:37:03.279Z,71.06
2022-08-26T02:39:08.036Z,71.91
2022-08-26T02:41:12.388Z,71.97
2022-08-26T02:43:16.471Z,72.18
2022-08-26T02:45:23.342Z,71.81
2022-08-26T02:47:30.578Z,72.49
2022-08-26T02:49:39.098Z,72.78
2022-08-26T02:51:43.193Z,72.53
2022-08-26T02:53:47.056Z,73.44
2022-08-26T02:55:51.618Z,73.45
2022-08-26T02:57:55.188Z,73.98
2022-08-26T02:59:59.338Z,73.55
2022-08-26T03:02:04.326Z,73.26
2022-08-26T03:04:10.766Z,74.19
2022-08-26T03:06:14.540Z,75.78
2022-08-26T03:08:19.030Z,76.21
2022-08-26T03:10:23.658Z,76.13
2022-08-26T03:12:30.524Z,76.54
2022-08-26T03:14:34.363Z,76.16
2022-08-26T03:16:39.061Z,77.00
2022-08-26T03:18:52.083Z,77.31
2022-08-26T03:20:57.541Z,77.16
2022-08-26T03:23:02.423Z,77.80
2022-08-26T03:25:11.965Z,77.85
2022-08-26T03:27:16.239Z,78.09
2022-08-26T03:29:40.446Z,78.85
2022-08-26T03:31:45.052Z,80.14
2022-08-26T03:33:50.922Z,79.57
2022-08-26T03:35:56.743Z,79.41
2022-08-26T03:38:01.908Z,79.38
2022-08-26T03:40:06.694Z,79.66
2022-08-26T03:42:10.713Z,79.27
2022-08-26T03:44:16.214Z,78.96
2022-08-26T03:46:21.741Z,78.87
2022-08-26T03:48:25.503Z,79.64
2022-08-26T03:50:29.732Z,80.20
2022-08-26T03:52:43.083Z,81.03
2022-08-26T03:54:47.329Z,81.42
2022-08-26T03:56:51.504Z,82.10
2022-08-26T03:58:56.010Z,83.60
2022-08-26T04:01:02.431Z,84.04
2022-08-26T04:03:06.740Z,84.85
2022-08-26T04:05:15.876Z,85.93
2022-08-26T04:07:20.290Z,87.03
2022-08-26T04:09:24.082Z,88.72
2022-08-26T04:11:34.606Z,88.36
2022-08-26T04:13:39.671Z,90.55
2022-08-26T04:15:46.367Z,90.92
2022-08-26T04:17:50.887Z,90.54
2022-08-26T04:19:55.338Z,91.41
2022-08-26T04:21:59.871Z,91.40
2022-08-26T04:24:11.409Z,91.01
2022-08-26T04:26:16.298Z,90.83
2022-08-26T04:28:20.009Z,91.75
2022-08-26T04:30:23.641Z,90.87
2022-08-26T04:32:29.764Z,92.04
2022-08-26T04:34:33.835Z,92.14
2022-08-26T04:36:38.463Z,96.80
2022-08-26T04:38:42.110Z,98.23
2022-08-26T04:40:46.903Z,98.57
2022-08-26T04:42:51.372Z,99.10
2022-08-26T04:44:56.365Z,99.51
2022-08-26T04:47:00.169Z,99.30
2022-08-26T04:49:04.609Z,98.90
2022-08-26T04:51:08.363Z,100.00
2022-08-26T04:53:14.626Z,100.00
2022-08-26T04:55:18.150Z,100.00
2022-08-26T04:57:24.410Z,100.00
2022-08-26T04:59:28.163Z,100.00
2022-08-26T05:01:32.879Z,100.00
2022-08-26T05:03:38.294Z,100.00
2022-08-26T05:05:45.689Z,100.00
2022-08-26T05:07:49.954Z,100.00
2022-08-26T05:09:53.999Z,100.00
2022-08-26T05:11:58.108Z,100.00
2022-08-26T05:14:02.459Z,100.00
2022-08-26T05:16:07.774Z,100.00
2022-08-26T05:18:11.957Z,100.00
2022-08-26T05:20:15.845Z,100.00
2022-08-26T05:22:19.630Z,100.00
2022-08-26T05:24:24.491Z,100.00
2022-08-26T05:26:31.817Z,100.00
2022-08-26T05:28:36.896Z,100.00
2022-08-26T05:30:41.205Z,100.00
2022-08-26T05:32:44.822Z,100.00
2022-08-26T05:34:48.623Z,100.00
2022-08-26T05:36:56.379Z,100.00
2022-08-26T05:39:00.129Z,100.00
2022-08-26T05:41:03.796Z,100.00
2022-08-26T05:43:11.670Z,100.00
2022-08-26T05:45:18.301Z,100.00
2022-08-26T05:47:23.006Z,100.00
2022-08-26T05:49:27.487Z,100.00
2022-08-26T05:51:31.320Z,100.00
2022-08-26T05:53:35.901Z,100.00
2022-08-26T05:55:44.980Z,100.00
2022-08-26T05:57:49.107Z,100.00
2022-08-26T05:59:52.941Z,100.00
2022-08-26T06:01:56.760Z,100.00
2022-08-26T06:04:02.277Z,100.00
2022-08-26T06:06:10.625Z,100.00
2022-08-26T06:08:19.188Z,100.00
2022-08-26T06:10:31.966Z,100.00
2022-08-26T06:12:37.296Z,100.00
2022-08-26T06:14:41.543Z,100.00
2022-08-26T06:16:46.113Z,100.00
2022-08-26T06:18:50.274Z,100.00
2022-08-26T06:20:58.018Z,100.00
2022-08-26T06:23:22.029Z,100.00
2022-08-26T06:25:42.935Z,100.00
2022-08-26T06:27:47.076Z,100.00
2022-08-26T06:29:51.527Z,100.00
2022-08-26T06:31:56.124Z,100.00
2022-08-26T06:34:00.058Z,100.00
2022-08-26T06:36:05.269Z,100.00
2022-08-26T06:38:09.346Z,100.00
2022-08-26T06:40:13.519Z,100.00
2022-08-26T06:42:17.070Z,100.00
2022-08-26T06:44:21.170Z,100.00
2022-08-26T06:46:24.846Z,100.00
2022-08-26T06:48:31.001Z,100.00
2022-08-26T06:50:35.264Z,100.00
2022-08-26T06:52:38.939Z,100.00
2022-08-26T06:54:45.515Z,100.00
2022-08-26T06:56:49.330Z,100.00
2022-08-26T06:58:53.172Z,100.00
2022-08-26T07:01:03.056Z,100.00
2022-08-26T07:03:13.845Z,100.00
2022-08-26T07:05:17.577Z,100.00
2022-08-26T07:07:22.033Z,100.00
2022-08-26T07:09:27.232Z,100.00
2022-08-26T07:11:31.104Z,100.00
2022-08-26T07:13:37.901Z,100.00
2022-08-26T07:15:42.481Z,100.00
2022-08-26T07:17:46.204Z,100.00
2022-08-26T07:19:50.234Z,100.00
2022-08-26T07:21:53.901Z,100.00
2022-08-26T07:24:01.232Z,100.00
2022-08-26T07:26:09.914Z,100.00
2022-08-26T07:28:13.939Z,100.00
2022-08-26T07:30:17.702Z,100.00
2022-08-26T07:32:24.456Z,100.00
2022-08-26T07:34:28.304Z,100.00
2022-08-26T07:36:32.054Z,100.00
2022-08-26T07:38:36.687Z,100.00
2022-08-26T07:40:42.250Z,100.00
2022-08-26T07:42:45.975Z,100.00
2022-08-26T07:44:49.915Z,100.00
2022-08-26T07:46:53.556Z,100.00
2022-08-26T07:48:58.354Z,100.00
2022-08-26T07:51:02.317Z,100.00
2022-08-26T07:53:06.415Z,100.00
2022-08-26T07:55:14.291Z,100.00
2022-08-26T07:57:19.090Z,100.00
2022-08-26T07:59:22.898Z,100.00
2022-08-26T08:01:27.943Z,100.00
2022-08-26T08:03:31.913Z,100.00
2022-08-26T08:05:38.082Z,100.00
2022-08-26T08:07:48.374Z,100.00
2022-08-26T08:09:57.897Z,100.00
2022-08-26T08:12:01.303Z,100.00
2022-08-26T08:14:08.254Z,100.00
2022-08-26T08:16:12.392Z,100.00
2022-08-26T08:18:17.540Z,100.00
2022-08-26T08:20:24.758Z,100.00
2022-08-26T08:22:28.965Z,100.00
2022-08-26T08:24:34.324Z,100.00
2022-08-26T08:26:38.326Z,100.00
2022-08-26T08:28:42.264Z,100.00
2022-08-26T08:30:45.980Z,100.00
2022-08-26T08:32:50.257Z,100.00
2022-08-26T08:34:54.663Z,100.00
2022-08-26T08:36:58.569Z,100.00
2022-08-26T08:39:03.738Z,100.00
2022-08-26T08:41:07.611Z,100.00
2022-08-26T08:43:14.957Z,100.00
2022-08-26T08:45:21.836Z,100.00
2022-08-26T08:47:26.181Z,100.00
2022-08-26T08:49:34.267Z,100.00
2022-08-26T08:51:45.086Z,100.00
2022-08-26T08:53:50.944Z,100.00
2022-08-26T08:56:13.782Z,100.00
2022-08-26T08:58:20.324Z,100.00
2022-08-26T09:00:30.240Z,100.00
2022-08-26T09:02:42.259Z,100.00
2022-08-26T09:04:46.146Z,100.00
2022-08-26T09:06:50.986Z,100.00
2022-08-26T09:08:55.892Z,100.00
2022-08-26T09:11:03.755Z,100.00
2022-08-26T09:13:16.841Z,100.00
2022-08-26T09:15:30.189Z,100.00
2022-08-26T09:17:34.384Z,100.00
2022-08-26T09:19:54.857Z,100.00
2022-08-26T09:22:00.555Z,100.00
2022-08-26T09:24:04.381Z,100.00
2022-08-26T09:26:20.175Z,100.00
2022-08-26T09:28:24.849Z,100.00
2022-08-26T09:30:30.593Z,100.00
2022-08-26T09:32:36.273Z,100.00
2022-08-26T09:34:53.462Z,100.00
2022-08-26T09:37:04.589Z,100.00
2022-08-26T09:39:29.043Z,100.00
2022-08-26T09:41:34.525Z,100.00
2022-08-26T09:43:38.652Z,100.00
2022-08-26T09:45:50.699Z,100.00
2022-08-26T09:47:58.016Z,100.00
2022-08-26T09:50:21.901Z,100.00
2022-08-26T09:52:27.713Z,100.00
2022-08-26T09:54:32.472Z,100.00
2022-08-26T09:56:39.470Z,100.00
2022-08-26T09:58:44.879Z,100.00
2022-08-26T10:00:57.308Z,100.00
2022-08-26T10:03:04.552Z,100.00
2022-08-26T10:05:10.222Z,100.00
2022-08-26T10:07:14.397Z,100.00
2022-08-26T10:09:20.149Z,100.00
2022-08-26T10:11:27.497Z,100.00
2022-08-26T10:13:39.958Z,100.00
2022-08-26T10:16:10.702Z,100.00
2022-08-26T10:18:18.867Z,100.00
2022-08-26T10:20:27.007Z,100.00
2022-08-26T10:22:37.780Z,100.00
2022-08-26T10:24:50.842Z,100.00
2022-08-26T10:27:12.198Z,100.00
2022-08-26T10:29:22.677Z,100.00
2022-08-26T10:32:03.468Z,100.00
2022-08-26T10:34:07.350Z,100.00
2022-08-26T10:36:39.301Z,100.00
2022-08-26T10:38:50.592Z,100.00
2022-08-26T10:41:10.854Z,100.00
2022-08-26T10:43:20.778Z,100.00
2022-08-26T10:45:28.665Z,100.00
2022-08-26T10:47:38.536Z,100.00
2022-08-26T10:49:42.891Z,100.00
2022-08-26T10:51:51.543Z,100.00
2022-08-26T10:54:19.428Z,100.00
2022-08-26T10:56:29.530Z,100.00
2022-08-26T10:58:47.615Z,100.00
2022-08-26T11:01:15.533Z,100.00
2022-08-26T11:03:26.463Z,100.00
2022-08-26T11:05:30.488Z,100.00
2022-08-26T11:07:37.355Z,100.00
2022-08-26T11:09:50.018Z,100.00
2022-08-26T11:11:53.519Z,100.00
2022-08-26T11:13:58.170Z,100.00
2022-08-26T11:16:01.811Z,100.00
2022-08-26T11:18:08.574Z,100.00
2022-08-26T11:20:24.614Z,100.00
2022-08-26T11:22:30.696Z,100.00
2022-08-26T11:24:57.715Z,100.00
2022-08-26T11:27:01.792Z,100.00
2022-08-26T11:29:11.975Z,100.00
2022-08-26T11:31:20.069Z,100.00
2022-08-26T11:33:43.134Z,100.00
2022-08-26T11:35:48.073Z,100.00
2022-08-26T11:38:04.316Z,100.00
2022-08-26T11:40:10.413Z,100.00
2022-08-26T11:42:36.488Z,100.00
2022-08-26T11:44:42.065Z,100.00
2022-08-26T11:46:56.593Z,100.00
2022-08-26T11:49:06.321Z,100.00
2022-08-26T11:51:10.651Z,100.00
2022-08-26T11:53:19.852Z,100.00
2022-08-26T11:55:26.328Z,100.00
2022-08-26T11:57:30.622Z,100.00
2022-08-26T11:59:40.511Z,100.00
2022-08-26T12:01:46.088Z,100.00
2022-08-26T12:03:52.653Z,100.00
2022-08-26T12:05:58.592Z,100.00
2022-08-26T12:08:05.334Z,100.00
2022-08-26T12:10:12.162Z,100.00
2022-08-26T12:12:17.828Z,100.00
2022-08-26T12:14:27.340Z,100.00
2022-08-26T12:16:33.105Z,100.00
2022-08-26T12:18:40.408Z,100.00
2022-08-26T12:20:49.384Z,100.00
2022-08-26T12:22:53.519Z,100.00
2022-08-26T12:24:59.726Z,100.00
2022-08-26T12:27:07.992Z,100.00
2022-08-26T12:29:26.834Z,100.00
2022-08-26T12:31:33.726Z,100.00
2022-08-26T12:33:38.313Z,100.00
2022-08-26T12:35:42.349Z,100.00
2022-08-26T12:37:50.644Z,100.00
2022-08-26T12:39:55.107Z,100.00
2022-08-26T12:42:00.295Z,100.00
2022-08-26T12:44:04.291Z,100.00
2022-08-26T12:46:09.675Z,100.00
2022-08-26T12:48:17.726Z,100.00
2022-08-26T12:50:32.687Z,100.00
2022-08-26T12:52:42.160Z,100.00
2022-08-26T12:55:04.787Z,100.00
2022-08-26T12:57:13.110Z,100.00
2022-08-26T12:59:19.567Z,100.00
2022-08-26T13:01:24.642Z,100.00
2022-08-26T13:03:40.002Z,100.00
2022-08-26T13:05:43.785Z,100.00
2022-08-26T13:08:07.147Z,100.00
2022-08-26T13:10:31.185Z,100.00
2022-08-26T13:12:38.252Z,100.00
2022-08-26T13:14:42.142Z,100.00
2022-08-26T13:16:47.283Z,100.00
2022-08-26T13:18:52.919Z,100.00
2022-08-26T13:20:57.195Z,100.00
2022-08-26T13:23:01.226Z,100.00
2022-08-26T13:25:04.887Z,100.00
2022-08-26T13:27:13.379Z,100.00
2022-08-26T13:29:17.574Z,100.00
2022-08-26T13:31:21.718Z,100.00
2022-08-26T13:33:30.827Z,100.00
2022-08-26T13:35:37.316Z,100.00
2022-08-26T13:37:40.790Z,100.00
2022-08-26T13:39:48.963Z,100.00
2022-08-26T13:42:12.607Z,100.00
2022-08-26T13:44:19.173Z,100.00
2022-08-26T13:46:22.988Z,100.00
2022-08-26T13:48:27.283Z,100.00
2022-08-26T13:50:30.904Z,100.00
2022-08-26T13:52:34.870Z,100.00
2022-08-26T13:54:38.831Z,100.00
2022-08-26T13:56:42.554Z,100.00
2022-08-26T13:58:46.401Z,100.00
2022-08-26T14:00:51.095Z,100.00
2022-08-26T14:02:54.990Z,100.00
2022-08-26T14:04:59.097Z,100.00
2022-08-26T14:07:02.721Z,100.00
2022-08-26T14:09:06.354Z,100.00
2022-08-26T14:11:13.308Z,100.00
2022-08-26T14:13:17.740Z,100.00
2022-08-26T14:15:22.662Z,100.00
2022-08-26T14:17:27.317Z,100.00
2022-08-26T14:19:34.558Z,100.00
2022-08-26T14:21:40.394Z,100.00
2022-08-26T14:23:45.431Z,100.00
2022-08-26T14:25:49.002Z,100.00
2022-08-26T14:27:54.272Z,100.00
2022-08-26T14:29:57.899Z,100.00
2022-08-26T14:32:12.648Z,100.00
2022-08-26T14:34:16.233Z,100.00
2022-08-26T14:36:33.278Z,100.00
2022-08-26T14:38:36.793Z,100.00
2022-08-26T14:40:44.142Z,100.00
2022-08-26T14:42:53.932Z,100.00
2022-08-26T14:44:59.400Z,100.00
2022-08-26T14:47:03.953Z,100.00
2022-08-26T14:49:10.563Z,100.00
2022-08-26T14:51:14.426Z,100.00
2022-08-26T14:53:36.275Z,100.00
2022-08-26T14:55:41.800Z,100.00
2022-08-26T14:57:45.801Z,100.00
2022-08-26T14:59:51.306Z,100.00
2022-08-26T15:01:55.960Z,100.00
2022-08-26T15:04:00.654Z,100.00
2022-08-26T15:06:05.267Z,100.00
2022-08-26T15:08:11.618Z,100.00
2022-08-26T15:10:17.216Z,100.00
2022-08-26T15:12:20.952Z,100.00
2022-08-26T15:14:32.685Z,100.00
2022-08-26T15:16:36.861Z,100.00
2022-08-26T15:18:40.838Z,100.00
2022-08-26T15:20:45.612Z,100.00
2022-08-26T15:22:49.778Z,100.00
2022-08-26T15:24:55.085Z,100.00
2022-08-26T15:26:59.379Z,100.00
2022-08-26T15:29:05.064Z,100.00
2022-08-26T15:31:12.771Z,100.00
2022-08-26T15:33:16.907Z,100.00
2022-08-26T15:35:21.758Z,100.00
2022-08-26T15:37:25.717Z,97.21
2022-08-26T15:39:30.098Z,97.95
2022-08-26T15:41:34.860Z,96.45
2022-08-26T15:43:39.407Z,97.20
2022-08-26T15:45:43.404Z,98.24
2022-08-26T15:48:12.467Z,96.09
2022-08-26T15:50:20.024Z,94.05
2022-08-26T15:52:24.109Z,91.60
2022-08-26T15:54:28.175Z,94.61
2022-08-26T15:56:33.834Z,95.81
2022-08-26T15:58:41.427Z,91.63
2022-08-26T16:00:47.279Z,89.64
2022-08-26T16:02:51.791Z,89.36
2022-08-26T16:04:55.438Z,87.58
2022-08-26T16:07:00.654Z,84.19
2022-08-26T16:09:04.782Z,85.11
2022-08-26T16:11:08.878Z,88.96
2022-08-26T16:13:14.852Z,82.04
2022-08-26T16:15:19.659Z,78.77
2022-08-26T16:17:23.275Z,74.74
2022-08-26T16:19:27.291Z,78.34
2022-08-26T16:21:31.038Z,73.66
2022-08-26T16:23:36.279Z,72.50
2022-08-26T16:25:40.090Z,76.97
2022-08-26T16:27:45.033Z,76.83
2022-08-26T16:29:48.790Z,72.09
2022-08-26T16:31:54.444Z,68.94
2022-08-26T16:33:57.921Z,66.75
2022-08-26T16:36:01.646Z,64.04
2022-08-26T16:38:06.048Z,64.91
2022-08-26T16:40:11.259Z,68.87
2022-08-26T16:42:15.030Z,68.28
2022-08-26T16:44:19.735Z,65.26
2022-08-26T16:46:26.619Z,66.62
2022-08-26T16:48:30.492Z,66.13
2022-08-26T16:50:34.468Z,69.17
2022-08-26T16:52:38.977Z,65.52
2022-08-26T16:54:42.648Z,64.57
2022-08-26T16:56:46.637Z,61.29
2022-08-26T16:58:50.642Z,57.59
2022-08-26T17:00:54.533Z,59.62
2022-08-26T17:02:59.937Z,56.77
2022-08-26T17:05:04.061Z,60.39
2022-08-26T17:07:08.028Z,57.04
2022-08-26T17:09:12.006Z,58.42
2022-08-26T17:11:16.575Z,59.00
2022-08-26T17:13:34.893Z,60.01
2022-08-26T17:15:40.288Z,54.11
2022-08-26T17:17:44.594Z,63.14
2022-08-26T17:19:48.352Z,55.99
2022-08-26T17:21:52.908Z,51.02
2022-08-26T17:23:57.774Z,45.98
2022-08-26T17:26:01.709Z,54.29
2022-08-26T17:28:06.299Z,49.60
2022-08-26T17:30:18.429Z,48.17
2022-08-26T17:32:22.163Z,51.36
2022-08-26T17:34:26.395Z,52.35
2022-08-26T17:36:30.022Z,54.66
2022-08-26T17:38:37.063Z,50.83
2022-08-26T17:40:40.668Z,51.40
2022-08-26T17:42:44.566Z,50.44
2022-08-26T17:44:49.328Z,52.77
2022-08-26T17:46:53.844Z,54.44
2022-08-26T17:48:57.950Z,55.57
2022-08-26T17:51:02.092Z,49.87
2022-08-26T17:53:05.829Z,50.40
2022-08-26T17:55:10.658Z,53.02
2022-08-26T17:57:14.229Z,56.28
2022-08-26T17:59:17.798Z,48.18
2022-08-26T18:01:22.647Z,48.74
2022-08-26T18:03:29.203Z,48.95
2022-08-26T18:05:33.197Z,54.57
2022-08-26T18:07:43.792Z,49.06
2022-08-26T18:09:48.464Z,51.09
2022-08-26T18:11:52.571Z,53.13
2022-08-26T18:14:05.135Z,50.86
2022-08-26T18:16:11.707Z,47.82
2022-08-26T18:18:16.619Z,53.33
2022-08-26T18:20:21.129Z,51.25
2022-08-26T18:22:24.922Z,52.21
2022-08-26T18:24:31.510Z,52.54
2022-08-26T18:26:36.782Z,49.29
2022-08-26T18:28:41.294Z,48.87
2022-08-26T18:30:45.999Z,51.71
2022-08-26T18:32:50.896Z,44.82
2022-08-26T18:34:55.409Z,46.83
2022-08-26T18:36:59.510Z,45.07
2022-08-26T18:39:05.119Z,49.22
2022-08-26T18:41:09.385Z,44.86
2022-08-26T18:43:13.434Z,44.25
2022-08-26T18:45:18.833Z,46.90
2022-08-26T18:47:23.690Z,41.04
2022-08-26T18:49:27.368Z,41.64
2022-08-26T18:51:32.633Z,39.37
2022-08-26T18:53:38.993Z,42.69
2022-08-26T18:55:42.727Z,40.96
2022-08-26T18:57:46.315Z,43.68
2022-08-26T18:59:50.436Z,38.98
2022-08-26T19:01:55.441Z,39.16
2022-08-26T19:03:59.988Z,41.70
2022-08-26T19:06:03.939Z,40.24
2022-08-26T19:08:08.408Z,38.01
2022-08-26T19:10:12.888Z,37.12
2022-08-26T19:12:17.421Z,40.09
2022-08-26T19:14:21.518Z,40.58
2022-08-26T19:16:27.121Z,35.12
2022-08-26T19:18:30.839Z,39.06
2022-08-26T19:20:46.030Z,35.98
2022-08-26T19:22:50.319Z,36.92
2022-08-26T19:24:54.368Z,33.56
2022-08-26T19:26:59.789Z,37.00
2022-08-26T19:29:04.299Z,35.90
2022-08-26T19:31:11.254Z,33.02
2022-08-26T19:33:15.909Z,35.27
2022-08-26T19:35:19.567Z,37.11
2022-08-26T19:37:23.516Z,35.04
2022-08-26T19:39:27.890Z,35.54
2022-08-26T19:41:37.264Z,37.09
2022-08-26T19:43:41.302Z,38.46
2022-08-26T19:45:45.268Z,35.96
2022-08-26T19:47:48.997Z,33.59
2022-08-26T19:49:56.441Z,36.73
2022-08-26T19:52:00.331Z,34.25
2022-08-26T19:54:04.794Z,38.51
2022-08-26T19:56:08.601Z,35.54
2022-08-26T19:58:13.575Z,38.93
2022-08-26T20:00:18.840Z,38.45
2022-08-26T20:02:23.383Z,35.50
2022-08-26T20:04:27.190Z,35.43
2022-08-26T20:06:31.697Z,36.63
2022-08-26T20:08:36.199Z,33.80
2022-08-26T20:10:40.690Z,39.58
2022-08-26T20:12:46.651Z,33.82
2022-08-26T20:14:50.737Z,34.52
2022-08-26T20:16:54.884Z,33.71
2022-08-26T20:19:17.513Z,33.85
2022-08-26T20:21:30.728Z,35.78
2022-08-26T20:23:35.591Z,34.43
2022-08-26T20:25:40.015Z,33.07
2022-08-26T20:27:44.581Z,33.08
2022-08-26T20:29:48.776Z,34.95
2022-08-26T20:31:55.841Z,34.93
2022-08-26T20:34:00.129Z,35.45
2022-08-26T20:36:07.211Z,33.52
2022-08-26T20:38:11.719Z,32.62
2022-08-26T20:40:16.177Z,32.66
2022-08-26T20:42:20.499Z,36.51
2022-08-26T20:44:24.923Z,35.87
2022-08-26T20:46:28.839Z,34.48
2022-08-26T20:48:35.361Z,34.86
2022-08-26T20:50:42.203Z,33.47
2022-08-26T20:52:46.030Z,35.56
2022-08-26T20:54:49.995Z,31.08
2022-08-26T20:56:54.803Z,31.54
2022-08-26T20:59:01.021Z,31.23
2022-08-26T21:01:07.781Z,31.49
2022-08-26T21:03:11.785Z,31.25
2022-08-26T21:05:16.006Z,31.31
2022-08-26T21:07:21.861Z,32.50
2022-08-26T21:09:27.283Z,32.29
2022-08-26T21:11:32.532Z,31.48
2022-08-26T21:13:54.488Z,32.71
2022-08-26T21:16:04.115Z,31.84
2022-08-26T21:18:09.271Z,30.13
2022-08-26T21:20:13.459Z,28.97
2022-08-26T21:22:17.030Z,30.11
2022-08-26T21:24:20.891Z,32.86
2022-08-26T21:26:25.648Z,30.27
2022-08-26T21:28:29.470Z,30.54
2022-08-26T21:30:35.284Z,30.31
2022-08-26T21:32:39.372Z,29.60
2022-08-26T21:34:43.078Z,29.57
2022-08-26T21:36:47.733Z,30.84
2022-08-26T21:38:51.324Z,29.27
2022-08-26T21:41:21.263Z,28.70
2022-08-26T21:43:35.388Z,28.14
2022-08-26T21:45:43.060Z,28.81
2022-08-26T21:47:47.855Z,28.95
2022-08-26T21:49:52.136Z,31.27
2022-08-26T21:51:56.276Z,28.72
2022-08-26T21:54:00.529Z,28.92
2022-08-26T21:56:06.310Z,29.16
2022-08-26T21:58:10.524Z,29.00
2022-08-26T22:00:17.068Z,29.95
2022-08-26T22:02:21.282Z,28.16
2022-08-26T22:04:25.280Z,28.33
2022-08-26T22:06:30.875Z,27.87
2022-08-26T22:08:35.198Z,29.09
2022-08-26T22:10:44.648Z,26.19
2022-08-26T22:12:48.380Z,26.97
2022-08-26T22:14:52.256Z,28.68
2022-08-26T22:16:57.076Z,27.19
2022-08-26T22:19:01.399Z,28.36
2022-08-26T22:21:08.334Z,26.95
2022-08-26T22:23:12.181Z,28.82
2022-08-26T22:25:15.776Z,28.38
2022-08-26T22:27:19.712Z,26.95
2022-08-26T22:29:26.391Z,27.15
2022-08-26T22:31:37.542Z,26.08
2022-08-26T22:33:43.587Z,27.68
2022-08-26T22:35:48.706Z,27.14
2022-08-26T22:37:52.178Z,26.82
2022-08-26T22:39:58.067Z,27.19
2022-08-26T22:42:02.122Z,26.58
2022-08-26T22:44:05.949Z,27.06
2022-08-26T22:46:10.914Z,27.35
2022-08-26T22:48:16.683Z,26.57
2022-08-26T22:50:20.574Z,27.60
2022-08-26T22:52:24.468Z,27.83
2022-08-26T22:54:29.950Z,27.27
2022-08-26T22:56:33.639Z,27.27
2022-08-26T22:58:37.731Z,28.03
2022-08-26T23:00:42.454Z,27.89
2022-08-26T23:02:47.640Z,28.88
2022-08-26T23:04:52.308Z,30.11
2022-08-26T23:06:55.977Z,30.07
2022-08-26T23:08:59.913Z,30.75
2022-08-26T23:11:03.985Z,31.04
2022-08-26T23:13:09.341Z,31.96
2022-08-26T23:15:16.266Z,33.65
2022-08-26T23:17:22.600Z,34.69
2022-08-26T23:19:26.408Z,33.51
2022-08-26T23:21:30.029Z,35.16
2022-08-26T23:23:34.132Z,35.26
2022-08-26T23:25:38.730Z,36.57
2022-08-26T23:27:45.660Z,37.61
2022-08-26T23:29:49.611Z,36.84
2022-08-26T23:31:53.662Z,38.38
2022-08-26T23:34:16.330Z,38.18
2022-08-26T23:36:22.779Z,41.37
2022-08-26T23:38:26.870Z,41.35
2022-08-26T23:40:35.979Z,42.02
2022-08-26T23:42:40.037Z,40.37
2022-08-26T23:44:44.125Z,42.65
2022-08-26T23:46:49.385Z,42.01
2022-08-26T23:48:53.568Z,41.89
2022-08-26T23:51:15.909Z,42.51
2022-08-26T23:53:21.856Z,42.75
2022-08-26T23:55:25.618Z,42.55
2022-08-26T23:57:29.516Z,42.03
2022-08-26T23:59:33.368Z,41.82
